Time,TemperatureF,DewpointF,PressureIn,WindDirection,WindDirectionDegrees,WindSpeedMPH,WindSpeedGustMPH,Humidity,HourlyPrecipIn,Conditions,Clouds,dailyrainin,SoftwareType,DateUTC
2013-02-01 00:01:00,9.6,-1.1,30.12,WNW,291,7.2,19.0,61,0.00,,,0.00,VWS V14.01,2013-02-01 05:01:00,
2013-02-01 00:02:00,9.5,-0.9,30.12,WNW,296,12.2,24.0,62,0.00,,,0.00,VWS V14.01,2013-02-01 05:02:00,
2013-02-01 00:07:00,9.5,-0.5,30.12,NW,304,9.2,24.0,63,0.00,,,0.00,VWS V14.01,2013-02-01 05:07:00,
2013-02-01 00:12:00,9.4,-0.3,30.13,WNW,295,5.2,9.0,64,0.00,,,0.00,VWS V14.01,2013-02-01 05:12:00,
2013-02-01 00:17:00,9.4,0.3,30.13,WNW,284,8.2,15.0,66,0.00,,,0.00,VWS V14.01,2013-02-01 05:17:00,
2013-02-01 00:23:00,9.4,1.3,30.13,West,281,13.2,19.0,69,0.00,,,0.00,VWS V14.01,2013-02-01 05:23:00,
2013-02-01 00:28:00,9.3,0.9,30.13,WNW,284,12.2,20.0,68,0.00,,,0.00,VWS V14.01,2013-02-01 05:28:00,
2013-02-01 00:33:00,9.2,0.2,30.13,WNW,283,9.2,14.0,66,0.00,,,0.00,VWS V14.01,2013-02-01 05:33:00,
2013-02-01 00:38:00,9.2,0.2,30.14,WNW,282,6.2,16.0,66,0.00,,,0.00,VWS V14.01,2013-02-01 05:38:00,
2013-02-01 00:43:00,9.2,0.8,30.14,West,279,12.2,15.0,68,0.00,,,0.00,VWS V14.01,2013-02-01 05:43:00,
2013-02-01 00:48:00,9.2,1.1,30.14,WNW,286,19.2,19.2,69,0.00,,,0.00,VWS V14.01,2013-02-01 05:48:00,
2013-02-01 00:53:00,9.0,0.6,30.14,NW,304,9.2,17.0,68,0.00,,,0.00,VWS V14.01,2013-02-01 05:53:00,
2013-02-01 00:58:00,8.8,0.4,30.14,WNW,290,10.2,22.0,68,0.00,,,0.00,VWS V14.01,2013-02-01 05:58:00,
2013-02-01 01:03:00,8.8,0.7,30.14,WNW,284,9.2,12.0,69,0.00,,,0.00,VWS V14.01,2013-02-01 06:03:00,
2013-02-01 01:08:00,8.7,0.9,30.14,WNW,288,15.2,20.0,70,0.00,,,0.00,VWS V14.01,2013-02-01 06:08:00,
2013-02-01 01:13:00,8.5,1.0,30.15,West,272,14.2,14.2,71,0.00,,,0.00,VWS V14.01,2013-02-01 06:13:00,
2013-02-01 01:18:00,8.5,0.7,30.16,WNW,296,11.2,17.0,70,0.00,,,0.00,VWS V14.01,2013-02-01 06:18:00,
2013-02-01 01:23:00,8.4,0.6,30.16,WNW,284,8.2,10.0,70,0.00,,,0.00,VWS V14.01,2013-02-01 06:23:00,
2013-02-01 01:28:00,8.3,0.2,30.16,West,276,13.2,21.0,69,0.00,,,0.00,VWS V14.01,2013-02-01 06:28:00,
2013-02-01 01:33:00,8.2,0.2,30.16,West,276,18.2,21.0,69,0.00,,,0.00,VWS V14.01,2013-02-01 06:33:00,
2013-02-01 01:38:00,8.0,-0.4,30.17,NNW,336,15.2,21.0,68,0.00,,,0.00,VWS V14.01,2013-02-01 06:38:00,
2013-02-01 01:43:00,7.9,-0.4,30.17,West,271,19.2,19.2,68,0.00,,,0.00,VWS V14.01,2013-02-01 06:43:00,
2013-02-01 01:48:00,7.8,-0.6,30.17,West,281,13.2,19.0,68,0.00,,,0.00,VWS V14.01,2013-02-01 06:48:00,
2013-02-01 01:53:00,7.7,-0.3,30.17,West,277,8.2,12.0,69,0.00,,,0.00,VWS V14.01,2013-02-01 06:53:00,
2013-02-01 01:58:00,7.7,-0.3,30.17,WNW,283,11.2,19.0,69,0.00,,,0.00,VWS V14.01,2013-02-01 06:58:00,
2013-02-01 02:03:00,7.6,-0.4,30.18,WNW,283,12.2,12.2,69,0.00,,,0.00,VWS V14.01,2013-02-01 07:03:00,
2013-02-01 02:08:00,7.6,-0.1,30.18,West,279,11.2,19.0,70,0.00,,,0.00,VWS V14.01,2013-02-01 07:08:00,
2013-02-01 02:13:00,7.5,-0.5,30.19,West,277,14.2,14.2,69,0.00,,,0.00,VWS V14.01,2013-02-01 07:13:00,
2013-02-01 02:18:00,7.4,-0.6,30.19,West,276,18.2,19.0,69,0.00,,,0.00,VWS V14.01,2013-02-01 07:18:00,
2013-02-01 02:23:00,7.3,-0.7,30.19,West,277,17.2,17.2,69,0.00,,,0.00,VWS V14.01,2013-02-01 07:23:00,
2013-02-01 02:28:00,7.3,-1.0,30.19,West,277,8.2,22.0,68,0.00,,,0.00,VWS V14.01,2013-02-01 07:28:00,
2013-02-01 02:33:00,7.2,-1.1,30.20,WNW,286,14.2,14.2,68,0.00,,,0.00,VWS V14.01,2013-02-01 07:33:00,
2013-02-01 02:38:00,7.1,-1.2,30.20,WNW,296,15.2,17.0,68,0.00,,,0.00,VWS V14.01,2013-02-01 07:38:00,
2013-02-01 02:43:00,7.1,-0.9,30.20,WNW,284,9.2,13.0,69,0.00,,,0.00,VWS V14.01,2013-02-01 07:43:00,
2013-02-01 02:48:00,7.1,-1.2,30.21,WNW,294,20.2,24.0,68,0.00,,,0.00,VWS V14.01,2013-02-01 07:48:00,
2013-02-01 02:53:00,6.9,-1.1,30.21,West,281,15.2,18.0,69,0.00,,,0.00,VWS V14.01,2013-02-01 07:53:00,
2013-02-01 02:58:00,6.8,-1.2,30.22,West,280,6.2,21.0,69,0.00,,,0.00,VWS V14.01,2013-02-01 07:58:00,
2013-02-01 03:03:00,6.7,-1.6,30.22,West,269,15.2,16.0,68,0.00,,,0.00,VWS V14.01,2013-02-01 08:03:00,
2013-02-01 03:08:00,6.7,-1.3,30.22,West,273,20.2,20.2,69,0.00,,,0.00,VWS V14.01,2013-02-01 08:08:00,
2013-02-01 03:13:00,6.7,-1.3,30.22,West,268,10.2,13.0,69,0.00,,,0.00,VWS V14.01,2013-02-01 08:13:00,
2013-02-01 03:18:00,6.6,-1.4,30.22,WNW,292,11.2,20.0,69,0.00,,,0.00,VWS V14.01,2013-02-01 08:18:00,
2013-02-01 03:23:00,6.5,-1.5,30.23,WNW,283,9.2,15.0,69,0.00,,,0.00,VWS V14.01,2013-02-01 08:23:00,
2013-02-01 03:28:00,6.5,-1.2,30.23,WNW,294,7.2,15.0,70,0.00,,,0.00,VWS V14.01,2013-02-01 08:28:00,
2013-02-01 03:33:00,6.5,-1.2,30.23,WNW,283,8.2,21.0,70,0.00,,,0.00,VWS V14.01,2013-02-01 08:33:00,
2013-02-01 03:38:00,6.5,-0.6,30.23,WNW,290,10.2,21.0,72,0.00,,,0.00,VWS V14.01,2013-02-01 08:38:00,
2013-02-01 03:43:00,6.5,-0.6,30.23,WNW,288,12.2,13.0,72,0.00,,,0.00,VWS V14.01,2013-02-01 08:43:00,
2013-02-01 03:48:00,6.5,-0.3,30.23,West,275,15.2,18.0,73,0.00,,,0.00,VWS V14.01,2013-02-01 08:48:00,
2013-02-01 03:53:00,6.5,-0.6,30.23,West,279,7.2,14.0,72,0.00,,,0.00,VWS V14.01,2013-02-01 08:53:00,
2013-02-01 03:58:00,6.6,-0.2,30.24,West,279,13.2,16.0,73,0.00,,,0.00,VWS V14.01,2013-02-01 08:58:00,
2013-02-01 04:03:00,6.7,0.2,30.24,West,281,10.2,11.0,74,0.00,,OVC022,0.00,VWS V14.01,2013-02-01 09:03:00,
2013-02-01 04:08:00,6.5,0.0,30.24,WNW,283,9.2,14.0,74,0.00,,OVC022,0.00,VWS V14.01,2013-02-01 09:08:00,
2013-02-01 04:13:00,6.4,-0.1,30.25,West,265,12.2,15.0,74,0.00,,OVC022,0.00,VWS V14.01,2013-02-01 09:13:00,
2013-02-01 04:18:00,6.3,-0.2,30.25,WNW,284,11.2,15.0,74,0.00,,OVC022,0.00,VWS V14.01,2013-02-01 09:18:00,
2013-02-01 04:23:00,6.2,-0.3,30.25,WNW,288,13.2,14.0,74,0.00,,OVC022,0.00,VWS V14.01,2013-02-01 09:23:00,
2013-02-01 04:28:00,6.1,-0.4,30.25,WNW,286,10.2,19.0,74,0.00,,OVC022,0.00,VWS V14.01,2013-02-01 09:28:00,
2013-02-01 04:33:00,6.1,-0.7,30.26,West,272,13.2,18.0,73,0.00,,OVC022,0.00,VWS V14.01,2013-02-01 09:33:00,
2013-02-01 04:38:00,6.0,-0.8,30.26,West,276,14.2,20.0,73,0.00,,OVC022,0.00,VWS V14.01,2013-02-01 09:38:00,
2013-02-01 04:43:00,5.9,-1.2,30.26,WNW,286,16.2,20.0,72,0.00,,OVC022,0.00,VWS V14.01,2013-02-01 09:43:00,
2013-02-01 04:48:00,5.8,-1.6,30.26,West,279,16.2,22.0,71,0.00,,OVC022,0.00,VWS V14.01,2013-02-01 09:48:00,
2013-02-01 04:53:00,5.7,-1.7,30.26,WNW,283,14.2,22.0,71,0.00,,OVC022,0.00,VWS V14.01,2013-02-01 09:53:00,
2013-02-01 04:58:00,5.7,-2.0,30.26,NW,313,10.2,22.0,70,0.00,,OVC022,0.00,VWS V14.01,2013-02-01 09:58:00,
2013-02-01 05:03:00,5.7,-2.0,30.27,West,277,10.2,17.0,70,0.00,,OVC023,0.00,VWS V14.01,2013-02-01 10:03:00,
2013-02-01 05:08:00,5.6,0.8,30.27,West,280,10.2,22.0,80,0.00,,OVC023,0.00,VWS V14.01,2013-02-01 10:08:00,
2013-02-01 05:13:00,5.6,-1.8,30.27,West,271,11.2,11.2,71,0.00,,OVC023,0.00,VWS V14.01,2013-02-01 10:13:00,
2013-02-01 05:18:00,5.6,-1.8,30.27,WNW,287,14.2,19.0,71,0.00,,OVC023,0.00,VWS V14.01,2013-02-01 10:18:00,
2013-02-01 05:23:00,5.5,-1.9,30.28,WNW,283,11.2,17.0,71,0.00,,OVC023,0.00,VWS V14.01,2013-02-01 10:23:00,
2013-02-01 05:28:00,5.6,-1.8,30.28,West,276,9.2,17.0,71,0.00,,OVC023,0.00,VWS V14.01,2013-02-01 10:28:00,
2013-02-01 05:33:00,5.6,-1.5,30.28,West,277,9.2,13.0,72,0.00,,OVC023,0.00,VWS V14.01,2013-02-01 10:33:00,
2013-02-01 05:38:00,5.5,-1.5,30.28,WNW,297,14.2,16.0,72,0.00,,OVC023,0.00,VWS V14.01,2013-02-01 10:38:00,
2013-02-01 05:43:00,5.4,-1.9,30.29,West,279,10.2,13.0,71,0.00,,OVC023,0.00,VWS V14.01,2013-02-01 10:43:00,
2013-02-01 05:48:00,5.3,-2.3,30.29,WNW,285,17.2,17.2,70,0.00,,OVC023,0.00,VWS V14.01,2013-02-01 10:48:00,
2013-02-01 05:53:00,5.2,-2.7,30.29,WNW,284,16.2,16.2,69,0.00,,OVC023,0.00,VWS V14.01,2013-02-01 10:53:00,
2013-02-01 05:58:00,5.1,-2.8,30.30,West,275,10.2,18.0,69,0.00,,OVC023,0.00,VWS V14.01,2013-02-01 10:58:00,
2013-02-01 06:03:00,5.1,-2.8,30.30,West,280,15.2,16.0,69,0.00,,BKN022,0.00,VWS V14.01,2013-02-01 11:03:00,
2013-02-01 06:08:00,5.1,-2.8,30.30,West,278,14.2,18.0,69,0.00,,BKN022,0.00,VWS V14.01,2013-02-01 11:08:00,
2013-02-01 06:13:00,5.1,-2.8,30.30,WNW,292,7.2,18.0,69,0.00,,BKN022,0.00,VWS V14.01,2013-02-01 11:13:00,
2013-02-01 06:18:00,5.1,-2.8,30.30,WNW,290,3.2,18.0,69,0.00,,BKN022,0.00,VWS V14.01,2013-02-01 11:18:00,
2013-02-01 06:24:00,5.1,-2.8,30.31,West,279,11.2,14.0,69,0.00,,BKN022,0.00,VWS V14.01,2013-02-01 11:24:00,
2013-02-01 06:29:00,5.0,-3.2,30.31,NW,304,7.2,19.0,68,0.00,,BKN022,0.00,VWS V14.01,2013-02-01 11:29:00,
2013-02-01 06:34:00,5.0,-3.2,30.31,NNW,330,10.2,11.0,68,0.00,,BKN022,0.00,VWS V14.01,2013-02-01 11:34:00,
2013-02-01 06:39:00,5.0,-2.9,30.32,West,268,11.2,14.0,69,0.00,,BKN022,0.00,VWS V14.01,2013-02-01 11:39:00,
2013-02-01 06:44:00,5.0,-2.9,30.32,West,272,12.2,15.0,69,0.00,,BKN022,0.00,VWS V14.01,2013-02-01 11:44:00,
2013-02-01 06:49:00,5.0,-3.2,30.32,West,281,10.2,15.0,68,0.00,,BKN022,0.00,VWS V14.01,2013-02-01 11:49:00,
2013-02-01 06:54:00,4.9,-3.0,30.32,West,276,10.2,16.0,69,0.00,,BKN022,0.00,VWS V14.01,2013-02-01 11:54:00,
2013-02-01 06:59:00,4.8,-3.1,30.33,West,279,11.2,16.0,69,0.00,,BKN022,0.00,VWS V14.01,2013-02-01 11:59:00,
2013-02-01 07:04:00,4.8,-3.1,30.33,West,281,10.2,13.0,69,0.00,,OVC019,0.00,VWS V14.01,2013-02-01 12:04:00,
2013-02-01 07:09:00,4.8,-2.8,30.33,West,280,5.2,13.0,70,0.00,,OVC019,0.00,VWS V14.01,2013-02-01 12:09:00,
2013-02-01 07:14:00,5.0,-2.0,30.33,WNW,288,3.2,12.0,72,0.00,,OVC019,0.00,VWS V14.01,2013-02-01 12:14:00,
2013-02-01 07:19:00,5.1,-1.6,30.34,WNW,286,6.2,15.0,73,0.00,,OVC019,0.00,VWS V14.01,2013-02-01 12:19:00,
2013-02-01 07:24:00,5.1,-1.6,30.34,West,279,12.2,12.2,73,0.00,,OVC019,0.00,VWS V14.01,2013-02-01 12:24:00,
2013-02-01 07:29:00,5.0,-2.0,30.34,WNW,284,10.2,15.0,72,0.00,,OVC019,0.00,VWS V14.01,2013-02-01 12:29:00,
2013-02-01 07:34:00,4.9,-2.1,30.34,West,279,4.2,15.0,72,0.00,,OVC019,0.00,VWS V14.01,2013-02-01 12:34:00,
2013-02-01 07:39:00,4.8,-2.2,30.34,WNW,288,6.2,15.0,72,0.00,,OVC019,0.00,VWS V14.01,2013-02-01 12:39:00,
2013-02-01 07:44:00,4.7,-2.6,30.34,WNW,294,5.2,6.0,71,0.00,,OVC019,0.00,VWS V14.01,2013-02-01 12:44:00,
2013-02-01 07:49:00,4.7,-2.3,30.35,WNW,288,6.2,8.0,72,0.00,,OVC019,0.00,VWS V14.01,2013-02-01 12:49:00,
2013-02-01 07:54:00,4.6,-2.4,30.35,WNW,283,4.2,14.0,72,0.00,,OVC019,0.00,VWS V14.01,2013-02-01 12:54:00,
2013-02-01 07:59:00,4.5,-2.8,30.35,WNW,291,11.2,14.0,71,0.00,,OVC019,0.00,VWS V14.01,2013-02-01 12:59:00,
2013-02-01 08:04:00,4.4,-2.9,30.36,WNW,286,8.2,17.0,71,0.00,,,0.00,VWS V14.01,2013-02-01 13:04:00,
2013-02-01 08:09:00,4.3,-3.3,30.35,West,280,12.2,17.0,70,0.00,,,0.00,VWS V14.01,2013-02-01 13:09:00,
2013-02-01 08:14:00,4.3,-3.0,30.35,WNW,284,10.2,12.0,71,0.00,,,0.00,VWS V14.01,2013-02-01 13:14:00,
2013-02-01 08:19:00,4.4,-2.9,30.35,NW,307,5.2,12.0,71,0.00,,,0.00,VWS V14.01,2013-02-01 13:19:00,
2013-02-01 08:24:00,4.4,-2.9,30.36,West,278,11.2,12.0,71,0.00,,,0.00,VWS V14.01,2013-02-01 13:24:00,
2013-02-01 08:29:00,4.4,-2.9,30.36,West,279,10.2,12.0,71,0.00,,,0.00,VWS V14.01,2013-02-01 13:29:00,
2013-02-01 08:34:00,4.4,-2.6,30.36,WNW,284,9.2,10.0,72,0.00,,,0.00,VWS V14.01,2013-02-01 13:34:00,
2013-02-01 08:39:00,4.6,-2.4,30.37,West,275,9.2,11.0,72,0.00,,,0.00,VWS V14.01,2013-02-01 13:39:00,
2013-02-01 08:44:00,4.6,-2.4,30.37,West,268,9.2,13.0,72,0.00,,,0.00,VWS V14.01,2013-02-01 13:44:00,
2013-02-01 08:49:00,4.7,-2.3,30.37,West,273,11.2,17.0,72,0.00,,,0.00,VWS V14.01,2013-02-01 13:49:00,
2013-02-01 08:54:00,4.7,-2.3,30.38,WNW,285,6.2,11.0,72,0.00,,,0.00,VWS V14.01,2013-02-01 13:54:00,
2013-02-01 08:59:00,4.9,-2.1,30.38,West,259,9.2,13.0,72,0.00,,,0.00,VWS V14.01,2013-02-01 13:59:00,
2013-02-01 09:04:00,5.1,-1.9,30.38,WNW,285,7.2,12.0,72,0.00,,,0.00,VWS V14.01,2013-02-01 14:04:00,
2013-02-01 09:09:00,5.2,-1.8,30.38,West,259,13.2,14.0,72,0.00,,,0.00,VWS V14.01,2013-02-01 14:09:00,
2013-02-01 09:14:00,5.3,-1.8,30.38,WSW,257,16.2,16.2,72,0.00,,,0.00,VWS V14.01,2013-02-01 14:14:00,
2013-02-01 09:19:00,5.5,-1.5,30.38,West,261,12.2,15.0,72,0.00,,,0.00,VWS V14.01,2013-02-01 14:19:00,
2013-02-01 09:24:00,5.7,-1.4,30.39,West,281,14.2,14.2,72,0.00,,,0.00,VWS V14.01,2013-02-01 14:24:00,
2013-02-01 09:29:00,5.8,-1.6,30.38,WSW,257,14.2,17.0,71,0.00,,,0.00,VWS V14.01,2013-02-01 14:29:00,
2013-02-01 09:34:00,5.8,-1.6,30.38,West,263,6.2,16.0,71,0.00,,,0.00,VWS V14.01,2013-02-01 14:34:00,
2013-02-01 09:39:00,6.0,-1.4,30.38,West,271,8.2,16.0,71,0.00,,,0.00,VWS V14.01,2013-02-01 14:39:00,
2013-02-01 09:44:00,6.2,-1.2,30.39,West,273,10.2,14.0,71,0.00,,,0.00,VWS V14.01,2013-02-01 14:44:00,
2013-02-01 09:49:00,6.1,-1.6,30.40,West,263,11.2,15.0,70,0.00,,,0.00,VWS V14.01,2013-02-01 14:49:00,
2013-02-01 09:54:00,5.9,-1.8,30.40,West,272,15.2,15.2,70,0.00,,,0.00,VWS V14.01,2013-02-01 14:54:00,
2013-02-01 09:59:00,6.0,-1.4,30.40,West,273,6.2,16.0,71,0.00,,,0.00,VWS V14.01,2013-02-01 14:59:00,
2013-02-01 10:04:00,6.4,-1.0,30.40,West,273,9.2,14.0,71,0.00,,BKN021,0.00,VWS V14.01,2013-02-01 15:04:00,
2013-02-01 10:09:00,6.6,-0.8,30.40,West,261,11.2,14.0,71,0.00,,BKN021,0.00,VWS V14.01,2013-02-01 15:09:00,
2013-02-01 10:14:00,6.7,-1.0,30.40,WSW,257,12.2,16.0,70,0.00,,BKN021,0.00,VWS V14.01,2013-02-01 15:14:00,
2013-02-01 10:19:00,6.9,-0.5,30.41,WSW,252,14.2,16.0,71,0.00,,BKN021,0.00,VWS V14.01,2013-02-01 15:19:00,
2013-02-01 10:24:00,7.1,-0.6,30.41,West,261,16.2,16.2,70,0.00,,BKN021,0.00,VWS V14.01,2013-02-01 15:24:00,
2013-02-01 10:29:00,7.1,-0.6,30.41,West,271,8.2,15.0,70,0.00,,BKN021,0.00,VWS V14.01,2013-02-01 15:29:00,
2013-02-01 10:34:00,7.5,0.1,30.41,WSW,250,14.2,14.2,71,0.00,,BKN021,0.00,VWS V14.01,2013-02-01 15:34:00,
2013-02-01 10:39:00,7.4,-0.6,30.42,WSW,244,14.2,14.2,69,0.00,,BKN021,0.00,VWS V14.01,2013-02-01 15:39:00,
2013-02-01 10:44:00,7.3,-0.4,30.42,WSW,244,14.2,17.0,70,0.00,,BKN021,0.00,VWS V14.01,2013-02-01 15:44:00,
2013-02-01 10:49:00,7.2,-0.5,30.42,West,263,14.2,17.0,70,0.00,,BKN021,0.00,VWS V14.01,2013-02-01 15:49:00,
2013-02-01 10:54:00,7.7,0.0,30.42,West,259,17.2,18.0,70,0.00,,BKN021,0.00,VWS V14.01,2013-02-01 15:54:00,
2013-02-01 10:59:00,7.7,0.0,30.42,WSW,255,13.2,18.0,70,0.00,,BKN021,0.00,VWS V14.01,2013-02-01 15:59:00,
2013-02-01 11:04:00,7.8,0.1,30.42,WSW,254,11.2,14.0,70,0.00,,BKN021,0.00,VWS V14.01,2013-02-01 16:04:00,
2013-02-01 11:09:00,8.0,0.6,30.42,WSW,256,10.2,15.0,71,0.00,,BKN021,0.00,VWS V14.01,2013-02-01 16:09:00,
2013-02-01 11:14:00,7.9,0.2,30.42,West,267,8.2,14.0,70,0.00,,BKN021,0.00,VWS V14.01,2013-02-01 16:14:00,
2013-02-01 11:19:00,7.7,0.0,30.43,West,263,9.2,16.0,70,0.00,,BKN021,0.00,VWS V14.01,2013-02-01 16:19:00,
2013-02-01 11:24:00,7.9,0.2,30.43,West,275,12.2,13.0,70,0.00,,BKN021,0.00,VWS V14.01,2013-02-01 16:24:00,
2013-02-01 11:29:00,8.0,0.3,30.43,West,263,8.2,15.0,70,0.00,,BKN021,0.00,VWS V14.01,2013-02-01 16:29:00,
2013-02-01 11:34:00,8.3,0.6,30.43,WSW,254,9.2,14.0,70,0.00,,BKN021,0.00,VWS V14.01,2013-02-01 16:34:00,
2013-02-01 11:39:00,8.4,0.6,30.43,West,266,10.2,14.0,70,0.00,,BKN021,0.00,VWS V14.01,2013-02-01 16:39:00,
2013-02-01 11:45:00,8.3,0.2,30.43,WSW,256,14.2,16.0,69,0.00,,BKN021,0.00,VWS V14.01,2013-02-01 16:45:00,
2013-02-01 11:50:00,8.2,0.2,30.43,West,264,9.2,16.0,69,0.00,,BKN021,0.00,VWS V14.01,2013-02-01 16:50:00,
2013-02-01 11:55:00,8.2,0.2,30.44,WSW,252,13.2,14.0,69,0.00,,BKN021,0.00,VWS V14.01,2013-02-01 16:55:00,
2013-02-01 12:00:00,8.3,0.6,30.43,WSW,256,12.2,17.0,70,0.00,,BKN021,0.00,VWS V14.01,2013-02-01 17:00:00,
2013-02-01 12:05:00,8.6,0.8,30.43,WSW,257,11.2,17.0,70,0.00,,,0.00,VWS V14.01,2013-02-01 17:05:00,
2013-02-01 12:10:00,8.6,0.5,30.43,WSW,244,13.2,17.0,69,0.00,,,0.00,VWS V14.01,2013-02-01 17:10:00,
2013-02-01 12:15:00,8.8,0.7,30.43,West,268,10.2,16.0,69,0.00,,,0.00,VWS V14.01,2013-02-01 17:15:00,
2013-02-01 12:20:00,9.2,1.1,30.43,WSW,249,9.2,17.0,69,0.00,,,0.00,VWS V14.01,2013-02-01 17:20:00,
2013-02-01 12:25:00,9.6,1.5,30.43,West,265,7.2,18.0,69,0.00,,,0.00,VWS V14.01,2013-02-01 17:25:00,
2013-02-01 12:30:00,10.0,2.2,30.43,West,267,6.2,18.0,70,0.00,,,0.00,VWS V14.01,2013-02-01 17:30:00,
2013-02-01 12:35:00,10.0,1.9,30.43,WNW,291,7.2,12.0,69,0.00,,,0.00,VWS V14.01,2013-02-01 17:35:00,
2013-02-01 12:40:00,9.9,1.8,30.43,WSW,246,12.2,14.0,69,0.00,,,0.00,VWS V14.01,2013-02-01 17:40:00,
2013-02-01 12:45:00,9.7,1.3,30.43,WNW,288,9.2,13.0,68,0.00,,,0.00,VWS V14.01,2013-02-01 17:45:00,
2013-02-01 12:50:00,10.0,1.9,30.43,WSW,252,15.2,16.0,69,0.00,,,0.00,VWS V14.01,2013-02-01 17:50:00,
2013-02-01 12:55:00,10.2,1.8,30.42,West,277,11.2,17.0,68,0.00,,,0.00,VWS V14.01,2013-02-01 17:55:00,
2013-02-01 13:00:00,10.1,1.3,30.42,West,281,9.2,17.0,67,0.00,,,0.00,VWS V14.01,2013-02-01 18:00:00,
2013-02-01 13:05:00,10.4,1.6,30.42,WSW,256,11.2,15.0,67,0.00,,SCT022,0.00,VWS V14.01,2013-02-01 18:05:00,
2013-02-01 13:10:00,10.8,2.3,30.42,West,275,10.2,15.0,68,0.00,,SCT022,0.00,VWS V14.01,2013-02-01 18:10:00,
2013-02-01 13:15:00,11.2,2.4,30.42,West,263,9.2,15.0,67,0.00,,SCT022,0.00,VWS V14.01,2013-02-01 18:15:00,
2013-02-01 13:20:00,11.1,2.0,30.42,West,259,12.2,16.0,66,0.00,,SCT022,0.00,VWS V14.01,2013-02-01 18:20:00,
2013-02-01 13:25:00,11.3,2.5,30.42,West,281,12.2,17.0,67,0.00,,SCT022,0.00,VWS V14.01,2013-02-01 18:25:00,
2013-02-01 13:30:00,11.4,2.6,30.41,West,260,12.2,17.0,67,0.00,,SCT022,0.00,VWS V14.01,2013-02-01 18:30:00,
2013-02-01 13:35:00,11.7,3.2,30.42,WSW,242,9.2,17.0,68,0.00,,SCT022,0.00,VWS V14.01,2013-02-01 18:35:00,
2013-02-01 13:40:00,11.5,2.4,30.41,WSW,248,13.2,18.0,66,0.00,,SCT022,0.00,VWS V14.01,2013-02-01 18:40:00,
2013-02-01 13:45:00,11.5,2.7,30.41,WSW,254,12.2,15.0,67,0.00,,SCT022,0.00,VWS V14.01,2013-02-01 18:45:00,
2013-02-01 13:50:00,12.0,3.2,30.41,West,272,14.2,16.0,67,0.00,,SCT022,0.00,VWS V14.01,2013-02-01 18:50:00,
2013-02-01 13:55:00,11.8,2.3,30.41,WSW,252,16.2,20.0,65,0.00,,SCT022,0.00,VWS V14.01,2013-02-01 18:55:00,
2013-02-01 14:00:00,11.5,2.4,30.40,WSW,244,5.2,20.0,66,0.00,,SCT022,0.00,VWS V14.01,2013-02-01 19:00:00,
2013-02-01 14:05:00,12.2,3.7,30.40,West,275,15.2,16.0,68,0.00,,BKN022,0.00,VWS V14.01,2013-02-01 19:05:00,
2013-02-01 14:10:00,12.8,3.9,30.40,West,261,11.2,16.0,67,0.00,,BKN022,0.00,VWS V14.01,2013-02-01 19:10:00,
2013-02-01 14:15:00,12.9,3.7,30.40,WSW,243,8.2,16.0,66,0.00,,BKN022,0.00,VWS V14.01,2013-02-01 19:15:00,
2013-02-01 14:20:00,13.5,4.9,30.40,WSW,246,15.2,19.0,68,0.00,,BKN022,0.00,VWS V14.01,2013-02-01 19:20:00,
2013-02-01 14:25:00,13.4,3.8,30.39,WSW,251,16.2,16.2,65,0.00,,BKN022,0.00,VWS V14.01,2013-02-01 19:25:00,
2013-02-01 14:30:00,13.1,3.9,30.39,WSW,254,7.2,18.0,66,0.00,,BKN022,0.00,VWS V14.01,2013-02-01 19:30:00,
2013-02-01 14:35:00,13.2,4.0,30.40,West,260,11.2,13.0,66,0.00,,BKN022,0.00,VWS V14.01,2013-02-01 19:35:00,
2013-02-01 14:40:00,13.4,4.2,30.39,West,268,18.2,18.2,66,0.00,,BKN022,0.00,VWS V14.01,2013-02-01 19:40:00,
2013-02-01 14:45:00,13.6,4.0,30.39,West,260,11.2,16.0,65,0.00,,BKN022,0.00,VWS V14.01,2013-02-01 19:45:00,
2013-02-01 14:50:00,13.7,4.1,30.40,WSW,252,15.2,17.0,65,0.00,,BKN022,0.00,VWS V14.01,2013-02-01 19:50:00,
2013-02-01 14:55:00,13.4,3.5,30.40,West,267,11.2,19.0,64,0.00,,BKN022,0.00,VWS V14.01,2013-02-01 19:55:00,
2013-02-01 15:00:00,13.1,3.2,30.39,West,271,10.2,19.0,64,0.00,,,0.00,VWS V14.01,2013-02-01 20:00:00,
2013-02-01 15:05:00,13.3,3.8,30.39,WSW,253,14.2,15.0,65,0.00,,,0.00,VWS V14.01,2013-02-01 20:05:00,
2013-02-01 15:10:00,13.6,3.7,30.39,WSW,242,14.2,15.0,64,0.00,,,0.00,VWS V14.01,2013-02-01 20:10:00,
2013-02-01 15:15:00,13.7,4.1,30.39,WSW,249,11.2,14.0,65,0.00,,,0.00,VWS V14.01,2013-02-01 20:15:00,
2013-02-01 15:20:00,13.6,4.0,30.39,West,279,13.2,16.0,65,0.00,,,0.00,VWS V14.01,2013-02-01 20:20:00,
2013-02-01 15:25:00,13.4,3.8,30.39,West,280,8.2,13.0,65,0.00,,,0.00,VWS V14.01,2013-02-01 20:25:00,
2013-02-01 15:30:00,13.4,3.8,30.40,WSW,248,13.2,15.0,65,0.00,,,0.00,VWS V14.01,2013-02-01 20:30:00,
2013-02-01 15:35:00,13.4,4.2,30.39,WSW,254,15.2,15.2,66,0.00,,,0.00,VWS V14.01,2013-02-01 20:35:00,
2013-02-01 15:40:00,13.5,3.9,30.39,WSW,252,15.2,17.0,65,0.00,,,0.00,VWS V14.01,2013-02-01 20:40:00,
2013-02-01 15:45:00,13.7,4.5,30.39,WSW,252,12.2,15.0,66,0.00,,,0.00,VWS V14.01,2013-02-01 20:45:00,
2013-02-01 15:50:00,13.8,4.2,30.39,WSW,257,9.2,15.0,65,0.00,,,0.00,VWS V14.01,2013-02-01 20:50:00,
2013-02-01 15:55:00,13.8,4.2,30.38,WSW,241,13.2,19.0,65,0.00,,,0.00,VWS V14.01,2013-02-01 20:55:00,
2013-02-01 16:00:00,13.8,3.9,30.39,WSW,248,21.2,21.2,64,0.00,,OVC029,0.00,VWS V14.01,2013-02-01 21:00:00,
2013-02-01 16:05:00,13.8,3.5,30.38,WSW,250,9.2,17.0,63,0.00,,OVC029,0.00,VWS V14.01,2013-02-01 21:05:00,
2013-02-01 16:10:00,13.8,3.9,30.38,WSW,244,11.2,17.0,64,0.00,,OVC029,0.00,VWS V14.01,2013-02-01 21:10:00,
2013-02-01 16:15:00,13.9,4.3,30.38,WSW,238,9.2,15.0,65,0.00,,OVC029,0.00,VWS V14.01,2013-02-01 21:15:00,
2013-02-01 16:20:00,14.0,4.4,30.38,WSW,248,8.2,15.0,65,0.00,,OVC029,0.00,VWS V14.01,2013-02-01 21:20:00,
2013-02-01 16:25:00,14.1,4.5,30.38,WSW,252,9.2,15.0,65,0.00,,OVC029,0.00,VWS V14.01,2013-02-01 21:25:00,
2013-02-01 16:30:00,14.2,4.6,30.38,West,259,12.2,17.0,65,0.00,,OVC029,0.00,VWS V14.01,2013-02-01 21:30:00,
2013-02-01 16:35:00,14.3,4.7,30.38,WSW,242,13.2,18.0,65,0.00,,OVC029,0.00,VWS V14.01,2013-02-01 21:35:00,
2013-02-01 16:40:00,14.2,4.6,30.38,WSW,252,11.2,19.0,65,0.00,,OVC029,0.00,VWS V14.01,2013-02-01 21:40:00,
2013-02-01 16:45:00,14.2,4.9,30.38,WSW,252,12.2,15.0,66,0.00,,OVC029,0.00,VWS V14.01,2013-02-01 21:45:00,
2013-02-01 16:50:00,14.1,4.8,30.38,WSW,249,10.2,15.0,66,0.00,,OVC029,0.00,VWS V14.01,2013-02-01 21:50:00,
2013-02-01 16:55:00,14.2,4.9,30.38,WSW,254,12.2,12.2,66,0.00,,OVC029,0.00,VWS V14.01,2013-02-01 21:55:00,
2013-02-01 17:01:00,14.2,4.6,30.38,WSW,257,9.2,16.0,65,0.00,,BKN030,0.00,VWS V14.01,2013-02-01 22:01:00,
2013-02-01 17:06:00,14.1,4.5,30.37,WSW,245,13.2,16.0,65,0.00,,BKN030,0.00,VWS V14.01,2013-02-01 22:06:00,
2013-02-01 17:11:00,14.2,4.9,30.37,SW,225,8.2,16.0,66,0.00,,BKN030,0.00,VWS V14.01,2013-02-01 22:11:00,
2013-02-01 17:16:00,14.5,4.9,30.38,WSW,250,10.2,17.0,65,0.00,,BKN030,0.00,VWS V14.01,2013-02-01 22:16:00,
2013-02-01 17:21:00,14.5,4.6,30.38,WSW,239,11.2,17.0,64,0.00,,BKN030,0.00,VWS V14.01,2013-02-01 22:21:00,
2013-02-01 17:26:00,14.2,4.3,30.38,WSW,240,8.2,13.0,64,0.00,,BKN030,0.00,VWS V14.01,2013-02-01 22:26:00,
2013-02-01 17:31:00,14.1,4.5,30.37,WSW,250,7.2,13.0,65,0.00,,BKN030,0.00,VWS V14.01,2013-02-01 22:31:00,
2013-02-01 17:36:00,14.2,4.6,30.37,WSW,245,6.2,10.0,65,0.00,,BKN030,0.00,VWS V14.01,2013-02-01 22:36:00,
2013-02-01 17:41:00,14.2,4.9,30.37,WSW,248,5.2,12.0,66,0.00,,BKN030,0.00,VWS V14.01,2013-02-01 22:41:00,
2013-02-01 17:46:00,14.2,4.9,30.37,WSW,254,12.2,12.2,66,0.00,,BKN030,0.00,VWS V14.01,2013-02-01 22:46:00,
2013-02-01 17:51:00,14.2,4.6,30.37,WSW,251,10.2,15.0,65,0.00,,BKN030,0.00,VWS V14.01,2013-02-01 22:51:00,
2013-02-01 17:56:00,14.2,4.6,30.37,WSW,250,8.2,13.0,65,0.00,,BKN030,0.00,VWS V14.01,2013-02-01 22:56:00,
2013-02-01 18:01:00,14.2,4.6,30.37,WSW,256,13.2,13.2,65,0.00,,BKN030,0.00,VWS V14.01,2013-02-01 23:01:00,
2013-02-01 18:06:00,14.1,4.5,30.37,WSW,248,8.2,12.0,65,0.00,,BKN030,0.00,VWS V14.01,2013-02-01 23:06:00,
2013-02-01 18:11:00,14.1,4.8,30.37,WSW,248,9.2,12.0,66,0.00,,BKN030,0.00,VWS V14.01,2013-02-01 23:11:00,
2013-02-01 18:16:00,14.1,4.8,30.37,WSW,251,10.2,12.0,66,0.00,,BKN030,0.00,VWS V14.01,2013-02-01 23:16:00,
2013-02-01 18:21:00,14.1,4.8,30.37,WSW,249,8.2,12.0,66,0.00,,BKN030,0.00,VWS V14.01,2013-02-01 23:21:00,
2013-02-01 18:26:00,14.1,4.8,30.38,WSW,248,6.2,10.0,66,0.00,,BKN030,0.00,VWS V14.01,2013-02-01 23:26:00,
2013-02-01 18:31:00,14.2,4.9,30.38,WSW,246,8.2,13.0,66,0.00,,BKN030,0.00,VWS V14.01,2013-02-01 23:31:00,
2013-02-01 18:36:00,14.2,4.9,30.38,WSW,244,7.2,10.0,66,0.00,,BKN030,0.00,VWS V14.01,2013-02-01 23:36:00,
2013-02-01 18:41:00,14.3,5.0,30.37,WSW,245,4.2,5.0,66,0.00,,BKN030,0.00,VWS V14.01,2013-02-01 23:41:00,
2013-02-01 18:46:00,14.3,5.0,30.37,WSW,237,3.2,8.0,66,0.00,,BKN030,0.00,VWS V14.01,2013-02-01 23:46:00,
2013-02-01 18:51:00,14.3,5.0,30.37,SW,233,5.2,5.2,66,0.00,,BKN030,0.00,VWS V14.01,2013-02-01 23:51:00,
2013-02-01 18:56:00,14.4,5.1,30.37,SW,227,7.2,7.2,66,0.00,,BKN030,0.00,VWS V14.01,2013-02-01 23:56:00,
2013-02-01 19:01:00,14.4,5.1,30.37,SW,219,4.2,6.0,66,0.00,,BKN032,0.00,VWS V14.01,2013-02-02 00:01:00,
2013-02-01 19:07:00,14.4,4.8,30.37,WSW,237,8.2,8.2,65,0.00,,BKN032,0.00,VWS V14.01,2013-02-02 00:07:00,
2013-02-01 19:12:00,14.3,4.7,30.37,WSW,244,8.2,11.0,65,0.00,,BKN032,0.00,VWS V14.01,2013-02-02 00:12:00,
2013-02-01 19:17:00,14.2,4.9,30.37,WSW,238,7.2,11.0,66,0.00,,BKN032,0.00,VWS V14.01,2013-02-02 00:17:00,
2013-02-01 19:22:00,14.2,4.9,30.37,SW,236,5.2,6.0,66,0.00,,BKN032,0.00,VWS V14.01,2013-02-02 00:22:00,
2013-02-01 19:27:00,14.1,4.8,30.37,SW,231,6.2,9.0,66,0.00,,BKN032,0.00,VWS V14.01,2013-02-02 00:27:00,
2013-02-01 19:32:00,14.1,4.8,30.37,SW,230,5.2,6.0,66,0.00,,BKN032,0.00,VWS V14.01,2013-02-02 00:32:00,
2013-02-01 19:37:00,14.0,4.8,30.37,SW,226,3.2,10.0,66,0.00,,BKN032,0.00,VWS V14.01,2013-02-02 00:37:00,
2013-02-01 19:42:00,14.0,4.8,30.37,SW,225,4.2,7.0,66,0.00,,BKN032,0.00,VWS V14.01,2013-02-02 00:42:00,
2013-02-01 19:47:00,14.0,4.8,30.37,SW,225,4.2,7.0,66,0.00,,BKN032,0.00,VWS V14.01,2013-02-02 00:47:00,
2013-02-01 19:52:00,13.9,4.7,30.37,SW,225,4.2,4.2,66,0.00,,BKN032,0.00,VWS V14.01,2013-02-02 00:52:00,
2013-02-01 19:57:00,13.8,4.6,30.36,SW,225,5.2,5.2,66,0.00,,BKN032,0.00,VWS V14.01,2013-02-02 00:57:00,
2013-02-01 20:02:00,13.7,4.8,30.36,SW,225,3.2,4.0,67,0.00,,SCT032,0.00,VWS V14.01,2013-02-02 01:02:00,
2013-02-01 20:07:00,13.6,4.7,30.36,SW,225,3.2,6.0,67,0.00,,SCT032,0.00,VWS V14.01,2013-02-02 01:07:00,
2013-02-01 20:12:00,13.5,4.6,30.36,SW,225,3.2,3.2,67,0.00,,SCT032,0.00,VWS V14.01,2013-02-02 01:12:00,
2013-02-01 20:17:00,13.4,4.8,30.36,SW,225,1.2,4.0,68,0.00,,SCT032,0.00,VWS V14.01,2013-02-02 01:17:00,
2013-02-01 20:22:00,13.4,4.8,30.37,SW,225,4.2,4.2,68,0.00,,SCT032,0.00,VWS V14.01,2013-02-02 01:22:00,
2013-02-01 20:27:00,13.3,4.7,30.36,SW,225,5.2,5.2,68,0.00,,SCT032,0.00,VWS V14.01,2013-02-02 01:27:00,
2013-02-01 20:32:00,13.2,4.6,30.36,SW,225,4.2,4.2,68,0.00,,SCT032,0.00,VWS V14.01,2013-02-02 01:32:00,
2013-02-01 20:37:00,13.2,4.9,30.36,SW,225,1.2,4.0,69,0.00,,SCT032,0.00,VWS V14.01,2013-02-02 01:37:00,
2013-02-01 20:42:00,13.1,4.8,30.36,SW,225,2.2,2.2,69,0.00,,SCT032,0.00,VWS V14.01,2013-02-02 01:42:00,
2013-02-01 20:47:00,13.0,4.8,30.36,SW,225,3.2,5.0,69,0.00,,SCT032,0.00,VWS V14.01,2013-02-02 01:47:00,
2013-02-01 20:52:00,12.9,5.0,30.36,SW,225,3.2,3.2,70,0.00,,SCT032,0.00,VWS V14.01,2013-02-02 01:52:00,
2013-02-01 20:57:00,12.9,5.0,30.36,SW,225,1.2,4.0,70,0.00,,SCT032,0.00,VWS V14.01,2013-02-02 01:57:00,
2013-02-01 21:02:00,12.8,4.9,30.36,SW,225,2.2,2.2,70,0.00,,SCT035,0.00,VWS V14.01,2013-02-02 02:02:00,
2013-02-01 21:07:00,12.8,5.2,30.36,SW,225,1.2,3.0,71,0.00,,SCT035,0.00,VWS V14.01,2013-02-02 02:07:00,
2013-02-01 21:12:00,12.7,5.1,30.36,SW,225,2.2,2.2,71,0.00,,SCT035,0.00,VWS V14.01,2013-02-02 02:12:00,
2013-02-01 21:17:00,12.7,5.1,30.36,SW,225,2.2,4.0,71,0.00,,SCT035,0.00,VWS V14.01,2013-02-02 02:17:00,
2013-02-01 21:22:00,12.6,5.3,30.36,SW,222,1.2,3.0,72,0.00,,SCT035,0.00,VWS V14.01,2013-02-02 02:22:00,
2013-02-01 21:27:00,12.8,5.8,30.36,SSW,213,7.2,8.0,73,0.00,,SCT035,0.00,VWS V14.01,2013-02-02 02:27:00,
2013-02-01 21:32:00,13.0,6.0,30.36,SW,223,6.2,8.0,73,0.00,,SCT035,0.00,VWS V14.01,2013-02-02 02:32:00,
2013-02-01 21:37:00,13.3,6.3,30.36,SW,229,2.2,8.0,73,0.00,,SCT035,0.00,VWS V14.01,2013-02-02 02:37:00,
2013-02-01 21:42:00,13.6,6.3,30.35,SW,223,10.2,10.2,72,0.00,,SCT035,0.00,VWS V14.01,2013-02-02 02:42:00,
2013-02-01 21:47:00,13.8,6.2,30.35,SW,220,6.2,13.0,71,0.00,,SCT035,0.00,VWS V14.01,2013-02-02 02:47:00,
2013-02-01 21:52:00,14.0,6.3,30.35,SW,233,6.2,6.2,71,0.00,,SCT035,0.00,VWS V14.01,2013-02-02 02:52:00,
2013-02-01 21:57:00,14.0,6.0,30.35,SW,231,5.2,8.0,70,0.00,,SCT035,0.00,VWS V14.01,2013-02-02 02:57:00,
2013-02-01 22:02:00,14.0,6.0,30.35,SW,228,4.2,9.0,70,0.00,,BKN150,0.00,VWS V14.01,2013-02-02 03:02:00,
2013-02-01 22:07:00,14.1,6.1,30.35,SW,214,6.2,13.0,70,0.00,,BKN150,0.00,VWS V14.01,2013-02-02 03:07:00,
2013-02-01 22:12:00,14.1,6.1,30.35,SW,221,5.2,6.0,70,0.00,,BKN150,0.00,VWS V14.01,2013-02-02 03:12:00,
2013-02-01 22:17:00,14.1,5.8,30.34,SW,217,2.2,12.0,69,0.00,,BKN150,0.00,VWS V14.01,2013-02-02 03:17:00,
2013-02-01 22:22:00,14.2,5.9,30.34,SW,226,10.2,11.0,69,0.00,,BKN150,0.00,VWS V14.01,2013-02-02 03:22:00,
2013-02-01 22:28:00,14.2,5.9,30.34,WSW,237,3.2,11.0,69,0.00,,BKN150,0.00,VWS V14.01,2013-02-02 03:28:00,
2013-02-01 22:33:00,14.2,5.9,30.34,SSW,205,8.2,9.0,69,0.00,,BKN150,0.00,VWS V14.01,2013-02-02 03:33:00,
2013-02-01 22:38:00,14.2,5.9,30.33,SSW,208,10.2,10.2,69,0.00,,BKN150,0.00,VWS V14.01,2013-02-02 03:38:00,
2013-02-01 22:43:00,14.3,6.0,30.33,SW,230,5.2,6.0,69,0.00,,BKN150,0.00,VWS V14.01,2013-02-02 03:43:00,
2013-02-01 22:48:00,14.4,6.1,30.33,SW,223,5.2,9.0,69,0.00,,BKN150,0.00,VWS V14.01,2013-02-02 03:48:00,
2013-02-01 22:53:00,14.5,6.2,30.33,SW,232,6.2,14.0,69,0.00,,BKN150,0.00,VWS V14.01,2013-02-02 03:53:00,
2013-02-01 22:58:00,14.6,6.3,30.32,WSW,237,10.2,14.0,69,0.00,,BKN150,0.00,VWS V14.01,2013-02-02 03:58:00,
2013-02-01 23:03:00,14.7,6.4,30.32,SW,219,5.2,12.0,69,0.00,,OVC140,0.00,VWS V14.01,2013-02-02 04:03:00,
2013-02-01 23:08:00,14.7,6.4,30.32,SSW,209,8.2,12.0,69,0.00,,OVC140,0.00,VWS V14.01,2013-02-02 04:08:00,
2013-02-01 23:13:00,14.8,6.5,30.32,SSW,209,10.2,10.2,69,0.00,,OVC140,0.00,VWS V14.01,2013-02-02 04:13:00,
2013-02-01 23:18:00,14.9,6.3,30.32,SW,218,6.2,12.0,68,0.00,,OVC140,0.00,VWS V14.01,2013-02-02 04:18:00,
2013-02-01 23:23:00,14.9,6.6,30.31,SW,225,5.2,15.0,69,0.00,,OVC140,0.00,VWS V14.01,2013-02-02 04:23:00,
2013-02-01 23:28:00,14.9,6.6,30.32,SSW,202,8.2,15.0,69,0.00,,OVC140,0.00,VWS V14.01,2013-02-02 04:28:00,
2013-02-01 23:33:00,15.0,6.7,30.32,SW,229,6.2,8.0,69,0.00,,OVC140,0.00,VWS V14.01,2013-02-02 04:33:00,
2013-02-01 23:38:00,15.1,6.8,30.32,SW,229,7.2,8.0,69,0.00,,OVC140,0.00,VWS V14.01,2013-02-02 04:38:00,
2013-02-01 23:43:00,15.2,6.9,30.31,SSW,204,3.2,7.0,69,0.00,,OVC140,0.00,VWS V14.01,2013-02-02 04:43:00,
2013-02-01 23:48:00,15.4,7.1,30.31,SSW,207,5.2,11.0,69,0.00,,OVC140,0.00,VWS V14.01,2013-02-02 04:48:00,
2013-02-01 23:53:00,15.5,7.2,30.31,SW,223,9.2,9.2,69,0.00,,OVC140,0.00,VWS V14.01,2013-02-02 04:53:00,
2013-02-01 23:58:00,15.6,7.3,30.31,SSW,208,6.2,10.0,69,0.00,,OVC140,0.00,VWS V14.01,2013-02-02 04:58:00,